sensor_id;sensor_type;location;lat;lon;timestamp;P1;durP1;ratioP1;P2;durP2;ratioP2
51981;SDS011;37998;53.416;6.730;2023-06-05T00:01:46;9.05;;;3.17;;
51981;SDS011;37998;53.416;6.730;2023-06-05T00:04:12;3.65;;;2.63;;
51981;SDS011;37998;53.416;6.730;2023-06-05T00:06:38;2.92;;;2.63;;
51981;SDS011;37998;53.416;6.730;2023-06-05T00:09:05;3.90;;;2.47;;
51981;SDS011;37998;53.416;6.730;2023-06-05T00:11:33;4.25;;;3.03;;
51981;SDS011;37998;53.416;6.730;2023-06-05T00:13:59;4.00;;;2.90;;
51981;SDS011;37998;53.416;6.730;2023-06-05T00:16:26;4.95;;;2.70;;
51981;SDS011;37998;53.416;6.730;2023-06-05T00:18:52;4.97;;;2.90;;
51981;SDS011;37998;53.416;6.730;2023-06-05T00:21:18;3.58;;;2.40;;
51981;SDS011;37998;53.416;6.730;2023-06-05T00:23:46;3.60;;;2.83;;
51981;SDS011;37998;53.416;6.730;2023-06-05T00:26:12;3.35;;;2.63;;
51981;SDS011;37998;53.416;6.730;2023-06-05T00:28:38;3.20;;;2.60;;
51981;SDS011;37998;53.416;6.730;2023-06-05T00:31:05;4.65;;;2.92;;
51981;SDS011;37998;53.416;6.730;2023-06-05T00:33:31;4.20;;;3.15;;
51981;SDS011;37998;53.416;6.730;2023-06-05T00:35:57;5.15;;;3.92;;
51981;SDS011;37998;53.416;6.730;2023-06-05T00:38:24;5.50;;;3.13;;
51981;SDS011;37998;53.416;6.730;2023-06-05T00:40:50;4.88;;;2.92;;
51981;SDS011;37998;53.416;6.730;2023-06-05T00:43:17;4.45;;;3.13;;
51981;SDS011;37998;53.416;6.730;2023-06-05T00:45:43;4.07;;;2.60;;
51981;SDS011;37998;53.416;6.730;2023-06-05T00:48:09;5.28;;;3.25;;
51981;SDS011;37998;53.416;6.730;2023-06-05T00:50:36;3.75;;;3.25;;
51981;SDS011;37998;53.416;6.730;2023-06-05T00:53:03;4.28;;;3.00;;
51981;SDS011;37998;53.416;6.730;2023-06-05T00:55:32;6.70;;;3.55;;
51981;SDS011;37998;53.416;6.730;2023-06-05T00:57:58;5.68;;;3.13;;
51981;SDS011;37998;53.416;6.730;2023-06-05T01:00:28;4.03;;;2.35;;
51981;SDS011;37998;53.416;6.730;2023-06-05T01:02:54;2.90;;;2.47;;
51981;SDS011;37998;53.416;6.730;2023-06-05T01:05:23;4.63;;;2.83;;
51981;SDS011;37998;53.416;6.730;2023-06-05T01:07:51;4.28;;;2.90;;
51981;SDS011;37998;53.416;6.730;2023-06-05T01:10:18;3.65;;;2.90;;
51981;SDS011;37998;53.416;6.730;2023-06-05T01:12:58;3.58;;;2.85;;
51981;SDS011;37998;53.416;6.730;2023-06-05T01:15:27;3.92;;;3.40;;
51981;SDS011;37998;53.416;6.730;2023-06-05T01:17:58;3.50;;;3.08;;
51981;SDS011;37998;53.416;6.730;2023-06-05T01:20:32;4.93;;;2.88;;
51981;SDS011;37998;53.416;6.730;2023-06-05T01:22:59;8.32;;;3.20;;
51981;SDS011;37998;53.416;6.730;2023-06-05T01:25:25;3.92;;;2.95;;
51981;SDS011;37998;53.416;6.730;2023-06-05T01:27:54;3.47;;;2.85;;
51981;SDS011;37998;53.416;6.730;2023-06-05T01:30:28;3.00;;;2.70;;
51981;SDS011;37998;53.416;6.730;2023-06-05T01:33:00;4.05;;;3.00;;
51981;SDS011;37998;53.416;6.730;2023-06-05T01:35:34;5.72;;;2.80;;
51981;SDS011;37998;53.416;6.730;2023-06-05T01:38:01;3.28;;;2.65;;
51981;SDS011;37998;53.416;6.730;2023-06-05T01:40:31;2.97;;;2.42;;
51981;SDS011;37998;53.416;6.730;2023-06-05T01:42:59;3.55;;;3.17;;
51981;SDS011;37998;53.416;6.730;2023-06-05T01:45:26;4.45;;;3.00;;
51981;SDS011;37998;53.416;6.730;2023-06-05T01:47:53;3.88;;;2.95;;
51981;SDS011;37998;53.416;6.730;2023-06-05T01:50:20;3.90;;;3.40;;
51981;SDS011;37998;53.416;6.730;2023-06-05T01:52:46;3.88;;;3.45;;
51981;SDS011;37998;53.416;6.730;2023-06-05T01:55:16;4.25;;;3.40;;
51981;SDS011;37998;53.416;6.730;2023-06-05T02:00:11;4.80;;;2.38;;
51981;SDS011;37998;53.416;6.730;2023-06-05T02:02:44;3.05;;;2.72;;
51981;SDS011;37998;53.416;6.730;2023-06-05T02:05:13;4.93;;;3.20;;
51981;SDS011;37998;53.416;6.730;2023-06-05T02:07:40;3.88;;;2.70;;
51981;SDS011;37998;53.416;6.730;2023-06-05T02:10:09;5.32;;;3.05;;
51981;SDS011;37998;53.416;6.730;2023-06-05T02:12:36;3.67;;;3.28;;
51981;SDS011;37998;53.416;6.730;2023-06-05T02:15:03;2.63;;;2.42;;
51981;SDS011;37998;53.416;6.730;2023-06-05T02:17:29;5.63;;;2.90;;
51981;SDS011;37998;53.416;6.730;2023-06-05T02:19:56;2.97;;;2.60;;
51981;SDS011;37998;53.416;6.730;2023-06-05T02:22:22;5.00;;;2.45;;
51981;SDS011;37998;53.416;6.730;2023-06-05T02:24:50;4.47;;;2.88;;
51981;SDS011;37998;53.416;6.730;2023-06-05T02:27:20;4.10;;;2.60;;
51981;SDS011;37998;53.416;6.730;2023-06-05T02:29:49;3.10;;;2.50;;
51981;SDS011;37998;53.416;6.730;2023-06-05T02:32:16;3.95;;;2.75;;
51981;SDS011;37998;53.416;6.730;2023-06-05T02:34:43;3.78;;;2.25;;
51981;SDS011;37998;53.416;6.730;2023-06-05T02:37:12;2.58;;;2.38;;
51981;SDS011;37998;53.416;6.730;2023-06-05T02:39:38;2.80;;;2.60;;
51981;SDS011;37998;53.416;6.730;2023-06-05T02:42:05;2.85;;;2.33;;
51981;SDS011;37998;53.416;6.730;2023-06-05T02:44:33;2.42;;;2.22;;
51981;SDS011;37998;53.416;6.730;2023-06-05T02:47:00;2.33;;;2.00;;
51981;SDS011;37998;53.416;6.730;2023-06-05T02:49:26;2.58;;;2.38;;
51981;SDS011;37998;53.416;6.730;2023-06-05T02:51:52;2.70;;;2.50;;
51981;SDS011;37998;53.416;6.730;2023-06-05T02:54:18;2.90;;;2.42;;
51981;SDS011;37998;53.416;6.730;2023-06-05T02:56:43;3.00;;;2.47;;
51981;SDS011;37998;53.416;6.730;2023-06-05T02:59:10;3.78;;;2.47;;
51981;SDS011;37998;53.416;6.730;2023-06-05T03:01:37;3.28;;;2.63;;
51981;SDS011;37998;53.416;6.730;2023-06-05T03:04:09;2.60;;;2.40;;
51981;SDS011;37998;53.416;6.730;2023-06-05T03:06:37;5.10;;;2.63;;
51981;SDS011;37998;53.416;6.730;2023-06-05T03:09:07;2.60;;;2.17;;
51981;SDS011;37998;53.416;6.730;2023-06-05T03:11:33;3.67;;;2.10;;
51981;SDS011;37998;53.416;6.730;2023-06-05T03:13:59;3.55;;;2.55;;
51981;SDS011;37998;53.416;6.730;2023-06-05T03:16:28;3.60;;;2.58;;
51981;SDS011;37998;53.416;6.730;2023-06-05T03:19:00;2.42;;;2.22;;
51981;SDS011;37998;53.416;6.730;2023-06-05T03:21:27;2.70;;;2.45;;
51981;SDS011;37998;53.416;6.730;2023-06-05T03:23:54;5.45;;;2.58;;
51981;SDS011;37998;53.416;6.730;2023-06-05T03:26:20;2.85;;;2.65;;
51981;SDS011;37998;53.416;6.730;2023-06-05T03:28:48;5.07;;;2.63;;
51981;SDS011;37998;53.416;6.730;2023-06-05T03:31:15;2.58;;;2.33;;
51981;SDS011;37998;53.416;6.730;2023-06-05T03:33:44;3.78;;;2.63;;
51981;SDS011;37998;53.416;6.730;2023-06-05T03:36:10;3.95;;;2.70;;
51981;SDS011;37998;53.416;6.730;2023-06-05T03:38:36;3.90;;;2.85;;
51981;SDS011;37998;53.416;6.730;2023-06-05T03:41:02;2.13;;;1.92;;
51981;SDS011;37998;53.416;6.730;2023-06-05T03:43:28;3.25;;;2.45;;
51981;SDS011;37998;53.416;6.730;2023-06-05T03:45:56;2.65;;;2.17;;
51981;SDS011;37998;53.416;6.730;2023-06-05T03:48:24;3.05;;;2.35;;
51981;SDS011;37998;53.416;6.730;2023-06-05T03:50:53;2.67;;;2.45;;
51981;SDS011;37998;53.416;6.730;2023-06-05T03:53:21;4.22;;;2.80;;
51981;SDS011;37998;53.416;6.730;2023-06-05T03:55:48;3.22;;;2.50;;
51981;SDS011;37998;53.416;6.730;2023-06-05T03:58:20;3.70;;;2.38;;
51981;SDS011;37998;53.416;6.730;2023-06-05T04:00:50;2.92;;;2.25;;
51981;SDS011;37998;53.416;6.730;2023-06-05T04:03:16;2.85;;;2.10;;
51981;SDS011;37998;53.416;6.730;2023-06-05T04:05:47;2.55;;;2.00;;
51981;SDS011;37998;53.416;6.730;2023-06-05T04:08:13;2.15;;;1.95;;
51981;SDS011;37998;53.416;6.730;2023-06-05T04:10:40;3.65;;;2.10;;
51981;SDS011;37998;53.416;6.730;2023-06-05T04:13:06;4.00;;;2.20;;
51981;SDS011;37998;53.416;6.730;2023-06-05T04:15:34;3.33;;;2.13;;
51981;SDS011;37998;53.416;6.730;2023-06-05T04:18:01;3.85;;;2.22;;
51981;SDS011;37998;53.416;6.730;2023-06-05T04:20:28;2.10;;;1.90;;
51981;SDS011;37998;53.416;6.730;2023-06-05T04:22:55;2.97;;;2.20;;
51981;SDS011;37998;53.416;6.730;2023-06-05T04:25:21;3.20;;;2.17;;
51981;SDS011;37998;53.416;6.730;2023-06-05T04:27:49;2.58;;;2.10;;
51981;SDS011;37998;53.416;6.730;2023-06-05T04:30:17;3.47;;;2.50;;
51981;SDS011;37998;53.416;6.730;2023-06-05T04:32:43;5.28;;;2.88;;
51981;SDS011;37998;53.416;6.730;2023-06-05T04:35:20;3.17;;;2.53;;
51981;SDS011;37998;53.416;6.730;2023-06-05T04:37:47;3.50;;;1.80;;
51981;SDS011;37998;53.416;6.730;2023-06-05T04:40:13;4.03;;;2.55;;
51981;SDS011;37998;53.416;6.730;2023-06-05T04:42:40;2.55;;;2.35;;
51981;SDS011;37998;53.416;6.730;2023-06-05T04:45:07;3.25;;;2.08;;
51981;SDS011;37998;53.416;6.730;2023-06-05T04:47:36;4.60;;;2.63;;
51981;SDS011;37998;53.416;6.730;2023-06-05T04:50:03;4.60;;;2.80;;
51981;SDS011;37998;53.416;6.730;2023-06-05T04:52:31;2.97;;;2.45;;
51981;SDS011;37998;53.416;6.730;2023-06-05T04:55:01;3.10;;;2.05;;
51981;SDS011;37998;53.416;6.730;2023-06-05T04:57:30;2.53;;;1.80;;
51981;SDS011;37998;53.416;6.730;2023-06-05T04:59:58;2.35;;;2.15;;
51981;SDS011;37998;53.416;6.730;2023-06-05T05:02:25;4.47;;;2.20;;
51981;SDS011;37998;53.416;6.730;2023-06-05T05:04:51;3.88;;;2.00;;
51981;SDS011;37998;53.416;6.730;2023-06-05T05:07:18;2.53;;;1.60;;
51981;SDS011;37998;53.416;6.730;2023-06-05T05:09:44;4.38;;;2.17;;
51981;SDS011;37998;53.416;6.730;2023-06-05T05:12:12;2.55;;;2.00;;
51981;SDS011;37998;53.416;6.730;2023-06-05T05:14:38;2.53;;;1.88;;
51981;SDS011;37998;53.416;6.730;2023-06-05T05:17:07;2.58;;;2.20;;
51981;SDS011;37998;53.416;6.730;2023-06-05T05:19:34;3.83;;;1.92;;
51981;SDS011;37998;53.416;6.730;2023-06-05T05:22:01;3.78;;;2.05;;
51981;SDS011;37998;53.416;6.730;2023-06-05T05:24:29;2.47;;;1.92;;
51981;SDS011;37998;53.416;6.730;2023-06-05T05:26:55;3.13;;;2.08;;
51981;SDS011;37998;53.416;6.730;2023-06-05T05:29:21;3.35;;;2.35;;
51981;SDS011;37998;53.416;6.730;2023-06-05T05:31:46;2.72;;;2.50;;
51981;SDS011;37998;53.416;6.730;2023-06-05T05:34:13;2.53;;;2.30;;
51981;SDS011;37998;53.416;6.730;2023-06-05T05:36:39;2.20;;;2.00;;
51981;SDS011;37998;53.416;6.730;2023-06-05T05:39:05;2.80;;;2.38;;
51981;SDS011;37998;53.416;6.730;2023-06-05T05:41:33;2.33;;;2.13;;
51981;SDS011;37998;53.416;6.730;2023-06-05T05:44:00;3.13;;;2.40;;
51981;SDS011;37998;53.416;6.730;2023-06-05T05:46:26;4.45;;;2.45;;
51981;SDS011;37998;53.416;6.730;2023-06-05T05:48:52;2.72;;;2.40;;
51981;SDS011;37998;53.416;6.730;2023-06-05T05:51:17;3.22;;;2.45;;
51981;SDS011;37998;53.416;6.730;2023-06-05T05:53:44;4.45;;;3.00;;
51981;SDS011;37998;53.416;6.730;2023-06-05T05:56:10;3.75;;;3.03;;
51981;SDS011;37998;53.416;6.730;2023-06-05T05:58:36;3.60;;;2.38;;
51981;SDS011;37998;53.416;6.730;2023-06-05T06:01:02;3.33;;;2.72;;
51981;SDS011;37998;53.416;6.730;2023-06-05T06:03:28;3.47;;;2.45;;
51981;SDS011;37998;53.416;6.730;2023-06-05T06:05:55;3.92;;;3.03;;
51981;SDS011;37998;53.416;6.730;2023-06-05T06:08:22;4.03;;;2.50;;
51981;SDS011;37998;53.416;6.730;2023-06-05T06:10:48;3.20;;;2.60;;
51981;SDS011;37998;53.416;6.730;2023-06-05T06:13:14;3.17;;;2.42;;
51981;SDS011;37998;53.416;6.730;2023-06-05T06:15:40;3.05;;;2.20;;
51981;SDS011;37998;53.416;6.730;2023-06-05T06:18:06;3.97;;;2.72;;
51981;SDS011;37998;53.416;6.730;2023-06-05T06:20:32;2.55;;;2.35;;
51981;SDS011;37998;53.416;6.730;2023-06-05T06:22:59;4.25;;;2.42;;
51981;SDS011;37998;53.416;6.730;2023-06-05T06:25:25;2.55;;;2.20;;
51981;SDS011;37998;53.416;6.730;2023-06-05T06:27:54;3.20;;;2.80;;
51981;SDS011;37998;53.416;6.730;2023-06-05T06:30:20;3.53;;;2.60;;
51981;SDS011;37998;53.416;6.730;2023-06-05T06:32:49;2.97;;;2.45;;
51981;SDS011;37998;53.416;6.730;2023-06-05T06:35:15;2.88;;;2.55;;
51981;SDS011;37998;53.416;6.730;2023-06-05T06:37:41;2.90;;;2.60;;
51981;SDS011;37998;53.416;6.730;2023-06-05T06:40:08;3.30;;;2.38;;
51981;SDS011;37998;53.416;6.730;2023-06-05T06:42:35;3.50;;;2.40;;
51981;SDS011;37998;53.416;6.730;2023-06-05T06:45:18;5.20;;;2.40;;
51981;SDS011;37998;53.416;6.730;2023-06-05T06:47:43;2.80;;;2.60;;
51981;SDS011;37998;53.416;6.730;2023-06-05T06:50:09;2.63;;;2.30;;
51981;SDS011;37998;53.416;6.730;2023-06-05T06:52:35;2.67;;;2.22;;
51981;SDS011;37998;53.416;6.730;2023-06-05T06:55:01;3.45;;;2.35;;
51981;SDS011;37998;53.416;6.730;2023-06-05T06:57:28;2.88;;;2.10;;
51981;SDS011;37998;53.416;6.730;2023-06-05T06:59:53;3.05;;;2.35;;
51981;SDS011;37998;53.416;6.730;2023-06-05T07:02:20;3.00;;;2.70;;
51981;SDS011;37998;53.416;6.730;2023-06-05T07:04:48;3.15;;;2.45;;
51981;SDS011;37998;53.416;6.730;2023-06-05T07:07:15;2.95;;;2.25;;
51981;SDS011;37998;53.416;6.730;2023-06-05T07:09:48;4.30;;;2.33;;
51981;SDS011;37998;53.416;6.730;2023-06-05T07:12:16;3.53;;;2.35;;
51981;SDS011;37998;53.416;6.730;2023-06-05T07:14:44;4.63;;;2.67;;
51981;SDS011;37998;53.416;6.730;2023-06-05T07:17:10;2.67;;;2.10;;
51981;SDS011;37998;53.416;6.730;2023-06-05T07:19:36;4.93;;;2.40;;
51981;SDS011;37998;53.416;6.730;2023-06-05T07:22:03;3.63;;;2.30;;
51981;SDS011;37998;53.416;6.730;2023-06-05T07:24:30;4.25;;;2.67;;
51981;SDS011;37998;53.416;6.730;2023-06-05T07:26:58;3.17;;;2.88;;
51981;SDS011;37998;53.416;6.730;2023-06-05T07:29:25;3.17;;;2.35;;
51981;SDS011;37998;53.416;6.730;2023-06-05T07:31:52;4.53;;;2.50;;
51981;SDS011;37998;53.416;6.730;2023-06-05T07:34:20;3.17;;;2.03;;
51981;SDS011;37998;53.416;6.730;2023-06-05T07:36:46;2.50;;;2.30;;
51981;SDS011;37998;53.416;6.730;2023-06-05T07:39:17;2.28;;;2.08;;
51981;SDS011;37998;53.416;6.730;2023-06-05T07:41:46;2.47;;;2.08;;
51981;SDS011;37998;53.416;6.730;2023-06-05T07:44:12;3.72;;;2.10;;
51981;SDS011;37998;53.416;6.730;2023-06-05T07:46:40;2.70;;;2.28;;
51981;SDS011;37998;53.416;6.730;2023-06-05T07:49:07;2.13;;;1.92;;
51981;SDS011;37998;53.416;6.730;2023-06-05T07:51:34;3.13;;;2.20;;
51981;SDS011;37998;53.416;6.730;2023-06-05T07:54:05;3.60;;;2.30;;
51981;SDS011;37998;53.416;6.730;2023-06-05T07:56:32;3.95;;;2.50;;
51981;SDS011;37998;53.416;6.730;2023-06-05T07:58:59;2.22;;;2.03;;
51981;SDS011;37998;53.416;6.730;2023-06-05T08:01:26;2.20;;;2.00;;
51981;SDS011;37998;53.416;6.730;2023-06-05T08:03:53;3.10;;;2.13;;
51981;SDS011;37998;53.416;6.730;2023-06-05T08:06:19;2.47;;;2.28;;
51981;SDS011;37998;53.416;6.730;2023-06-05T08:08:50;2.97;;;2.15;;
51981;SDS011;37998;53.416;6.730;2023-06-05T08:11:16;2.15;;;1.98;;
51981;SDS011;37998;53.416;6.730;2023-06-05T08:13:42;3.58;;;1.73;;
51981;SDS011;37998;53.416;6.730;2023-06-05T08:16:09;2.80;;;1.80;;
51981;SDS011;37998;53.416;6.730;2023-06-05T08:18:35;2.55;;;2.13;;
51981;SDS011;37998;53.416;6.730;2023-06-05T08:21:00;3.05;;;2.42;;
51981;SDS011;37998;53.416;6.730;2023-06-05T08:23:27;4.40;;;2.30;;
51981;SDS011;37998;53.416;6.730;2023-06-05T08:25:53;1.88;;;1.77;;
51981;SDS011;37998;53.416;6.730;2023-06-05T08:28:19;4.68;;;2.30;;
51981;SDS011;37998;53.416;6.730;2023-06-05T08:30:45;2.92;;;1.90;;
51981;SDS011;37998;53.416;6.730;2023-06-05T08:33:11;2.53;;;2.15;;
51981;SDS011;37998;53.416;6.730;2023-06-05T08:35:40;3.00;;;2.70;;
51981;SDS011;37998;53.416;6.730;2023-06-05T08:38:07;2.22;;;2.03;;
51981;SDS011;37998;53.416;6.730;2023-06-05T08:40:33;2.50;;;2.30;;
51981;SDS011;37998;53.416;6.730;2023-06-05T08:43:02;2.92;;;2.15;;
51981;SDS011;37998;53.416;6.730;2023-06-05T08:45:29;3.58;;;2.10;;
51981;SDS011;37998;53.416;6.730;2023-06-05T08:47:56;2.58;;;1.73;;
51981;SDS011;37998;53.416;6.730;2023-06-05T08:50:26;2.00;;;1.88;;
51981;SDS011;37998;53.416;6.730;2023-06-05T08:52:58;3.05;;;2.45;;
51981;SDS011;37998;53.416;6.730;2023-06-05T08:55:29;4.88;;;2.15;;
51981;SDS011;37998;53.416;6.730;2023-06-05T08:57:55;1.90;;;1.77;;
51981;SDS011;37998;53.416;6.730;2023-06-05T09:00:21;2.30;;;2.10;;
51981;SDS011;37998;53.416;6.730;2023-06-05T09:02:47;3.08;;;1.98;;
51981;SDS011;37998;53.416;6.730;2023-06-05T09:05:14;2.03;;;1.83;;
51981;SDS011;37998;53.416;6.730;2023-06-05T09:07:40;4.32;;;2.13;;
51981;SDS011;37998;53.416;6.730;2023-06-05T09:10:07;4.78;;;2.03;;
51981;SDS011;37998;53.416;6.730;2023-06-05T09:12:52;4.38;;;2.00;;
51981;SDS011;37998;53.416;6.730;2023-06-05T09:15:52;2.90;;;2.00;;
51981;SDS011;37998;53.416;6.730;2023-06-05T09:18:15;1.83;;;1.73;;
51981;SDS011;37998;53.416;6.730;2023-06-05T09:20:41;2.17;;;1.73;;
51981;SDS011;37998;53.416;6.730;2023-06-05T09:23:24;2.63;;;1.98;;
51981;SDS011;37998;53.416;6.730;2023-06-05T09:25:52;4.80;;;2.20;;
51981;SDS011;37998;53.416;6.730;2023-06-05T09:31:01;2.22;;;2.00;;
51981;SDS011;37998;53.416;6.730;2023-06-05T09:33:32;3.67;;;2.10;;
51981;SDS011;37998;53.416;6.730;2023-06-05T09:36:06;3.95;;;1.90;;
51981;SDS011;37998;53.416;6.730;2023-06-05T09:38:35;3.05;;;2.40;;
51981;SDS011;37998;53.416;6.730;2023-06-05T09:43:31;2.13;;;2.03;;
51981;SDS011;37998;53.416;6.730;2023-06-05T09:45:59;2.40;;;2.20;;
51981;SDS011;37998;53.416;6.730;2023-06-05T09:48:31;3.88;;;1.90;;
51981;SDS011;37998;53.416;6.730;2023-06-05T09:51:17;2.97;;;2.10;;
51981;SDS011;37998;53.416;6.730;2023-06-05T09:53:44;2.60;;;1.77;;
51981;SDS011;37998;53.416;6.730;2023-06-05T09:56:15;2.85;;;2.08;;
51981;SDS011;37998;53.416;6.730;2023-06-05T09:58:43;2.20;;;2.00;;
51981;SDS011;37998;53.416;6.730;2023-06-05T10:01:18;3.38;;;2.10;;
51981;SDS011;37998;53.416;6.730;2023-06-05T10:03:59;3.25;;;1.92;;
51981;SDS011;37998;53.416;6.730;2023-06-05T10:06:27;2.17;;;1.98;;
51981;SDS011;37998;53.416;6.730;2023-06-05T10:08:53;1.98;;;1.80;;
51981;SDS011;37998;53.416;6.730;2023-06-05T10:11:23;3.67;;;2.28;;
51981;SDS011;37998;53.416;6.730;2023-06-05T10:13:51;2.58;;;2.10;;
51981;SDS011;37998;53.416;6.730;2023-06-05T10:16:18;2.85;;;2.30;;
51981;SDS011;37998;53.416;6.730;2023-06-05T10:18:46;4.05;;;1.88;;
51981;SDS011;37998;53.416;6.730;2023-06-05T10:21:16;3.00;;;2.25;;
51981;SDS011;37998;53.416;6.730;2023-06-05T10:23:51;2.30;;;2.10;;
51981;SDS011;37998;53.416;6.730;2023-06-05T10:26:30;2.92;;;1.92;;
51981;SDS011;37998;53.416;6.730;2023-06-05T10:35:07;2.25;;;2.03;;
51981;SDS011;37998;53.416;6.730;2023-06-05T10:38:08;2.63;;;1.80;;
51981;SDS011;37998;53.416;6.730;2023-06-05T10:40:55;2.95;;;2.03;;
51981;SDS011;37998;53.416;6.730;2023-06-05T10:49:12;2.80;;;2.20;;
51981;SDS011;37998;53.416;6.730;2023-06-05T10:51:48;2.92;;;2.10;;
51981;SDS011;37998;53.416;6.730;2023-06-05T10:56:59;2.88;;;1.80;;
51981;SDS011;37998;53.416;6.730;2023-06-05T10:59:31;3.53;;;2.30;;
51981;SDS011;37998;53.416;6.730;2023-06-05T11:07:30;2.78;;;1.98;;
51981;SDS011;37998;53.416;6.730;2023-06-05T11:17:34;2.25;;;2.05;;
51981;SDS011;37998;53.416;6.730;2023-06-05T11:20:03;3.13;;;2.22;;
51981;SDS011;37998;53.416;6.730;2023-06-05T11:22:32;2.78;;;1.90;;
51981;SDS011;37998;53.416;6.730;2023-06-05T11:27:54;2.45;;;2.00;;
51981;SDS011;37998;53.416;6.730;2023-06-05T11:30:26;3.22;;;2.35;;
51981;SDS011;37998;53.416;6.730;2023-06-05T11:33:04;4.25;;;2.22;;
51981;SDS011;37998;53.416;6.730;2023-06-05T11:35:37;4.10;;;2.42;;
51981;SDS011;37998;53.416;6.730;2023-06-05T11:38:14;4.18;;;2.42;;
51981;SDS011;37998;53.416;6.730;2023-06-05T11:40:41;4.07;;;2.33;;
51981;SDS011;37998;53.416;6.730;2023-06-05T11:43:09;3.47;;;2.28;;
51981;SDS011;37998;53.416;6.730;2023-06-05T11:45:37;3.80;;;2.60;;
51981;SDS011;37998;53.416;6.730;2023-06-05T11:50:35;3.45;;;2.38;;
51981;SDS011;37998;53.416;6.730;2023-06-05T11:55:31;3.15;;;2.50;;
51981;SDS011;37998;53.416;6.730;2023-06-05T11:58:10;3.78;;;2.40;;
51981;SDS011;37998;53.416;6.730;2023-06-05T12:00:36;3.15;;;2.63;;
51981;SDS011;37998;53.416;6.730;2023-06-05T12:03:02;3.60;;;2.63;;
51981;SDS011;37998;53.416;6.730;2023-06-05T12:05:28;3.35;;;2.33;;
51981;SDS011;37998;53.416;6.730;2023-06-05T12:07:54;4.13;;;2.70;;
51981;SDS011;37998;53.416;6.730;2023-06-05T12:10:32;4.68;;;2.75;;
51981;SDS011;37998;53.416;6.730;2023-06-05T12:12:59;3.22;;;2.30;;
51981;SDS011;37998;53.416;6.730;2023-06-05T12:15:27;3.83;;;2.72;;
51981;SDS011;37998;53.416;6.730;2023-06-05T12:17:56;2.75;;;2.20;;
51981;SDS011;37998;53.416;6.730;2023-06-05T12:20:22;4.78;;;2.85;;
51981;SDS011;37998;53.416;6.730;2023-06-05T12:22:48;5.55;;;3.03;;
51981;SDS011;37998;53.416;6.730;2023-06-05T12:25:21;4.55;;;2.55;;
51981;SDS011;37998;53.416;6.730;2023-06-05T12:27:48;4.38;;;3.40;;
51981;SDS011;37998;53.416;6.730;2023-06-05T12:30:15;3.47;;;2.38;;
51981;SDS011;37998;53.416;6.730;2023-06-05T12:32:44;4.05;;;2.60;;
51981;SDS011;37998;53.416;6.730;2023-06-05T12:35:20;3.72;;;2.92;;
51981;SDS011;37998;53.416;6.730;2023-06-05T12:37:51;2.80;;;2.33;;
51981;SDS011;37998;53.416;6.730;2023-06-05T12:40:17;2.88;;;2.45;;
51981;SDS011;37998;53.416;6.730;2023-06-05T12:42:46;3.78;;;2.40;;
51981;SDS011;37998;53.416;6.730;2023-06-05T12:45:13;5.55;;;3.00;;
51981;SDS011;37998;53.416;6.730;2023-06-05T12:47:40;2.75;;;2.38;;
51981;SDS011;37998;53.416;6.730;2023-06-05T12:50:07;2.90;;;2.60;;
51981;SDS011;37998;53.416;6.730;2023-06-05T12:52:37;4.15;;;2.65;;
51981;SDS011;37998;53.416;6.730;2023-06-05T12:55:04;4.43;;;2.45;;
51981;SDS011;37998;53.416;6.730;2023-06-05T12:57:30;5.10;;;2.60;;
51981;SDS011;37998;53.416;6.730;2023-06-05T12:59:57;4.40;;;2.55;;
51981;SDS011;37998;53.416;6.730;2023-06-05T13:02:23;2.90;;;2.50;;
51981;SDS011;37998;53.416;6.730;2023-06-05T13:04:49;5.05;;;2.63;;
51981;SDS011;37998;53.416;6.730;2023-06-05T13:07:18;2.78;;;2.20;;
51981;SDS011;37998;53.416;6.730;2023-06-05T13:09:46;4.72;;;2.40;;
51981;SDS011;37998;53.416;6.730;2023-06-05T13:12:13;4.25;;;2.60;;
51981;SDS011;37998;53.416;6.730;2023-06-05T13:14:39;3.25;;;2.72;;
51981;SDS011;37998;53.416;6.730;2023-06-05T13:17:05;5.03;;;2.55;;
51981;SDS011;37998;53.416;6.730;2023-06-05T13:19:31;6.18;;;2.65;;
51981;SDS011;37998;53.416;6.730;2023-06-05T13:21:57;3.95;;;2.30;;
51981;SDS011;37998;53.416;6.730;2023-06-05T13:24:23;5.78;;;2.42;;
51981;SDS011;37998;53.416;6.730;2023-06-05T13:26:49;5.43;;;2.50;;
51981;SDS011;37998;53.416;6.730;2023-06-05T13:29:15;6.13;;;2.53;;
51981;SDS011;37998;53.416;6.730;2023-06-05T13:31:40;5.20;;;2.53;;
51981;SDS011;37998;53.416;6.730;2023-06-05T13:34:06;3.45;;;2.70;;
51981;SDS011;37998;53.416;6.730;2023-06-05T13:36:32;3.60;;;2.60;;
51981;SDS011;37998;53.416;6.730;2023-06-05T13:38:58;3.65;;;2.67;;
51981;SDS011;37998;53.416;6.730;2023-06-05T13:41:24;5.20;;;3.17;;
51981;SDS011;37998;53.416;6.730;2023-06-05T13:43:51;4.15;;;2.80;;
51981;SDS011;37998;53.416;6.730;2023-06-05T13:46:17;3.92;;;2.58;;
51981;SDS011;37998;53.416;6.730;2023-06-05T13:48:43;3.55;;;3.03;;
51981;SDS011;37998;53.416;6.730;2023-06-05T13:51:09;5.05;;;2.42;;
51981;SDS011;37998;53.416;6.730;2023-06-05T13:53:35;5.55;;;2.83;;
51981;SDS011;37998;53.416;6.730;2023-06-05T13:56:02;4.97;;;2.58;;
51981;SDS011;37998;53.416;6.730;2023-06-05T13:58:29;3.00;;;2.70;;
51981;SDS011;37998;53.416;6.730;2023-06-05T14:00:58;4.32;;;2.33;;
51981;SDS011;37998;53.416;6.730;2023-06-05T14:03:25;3.83;;;2.97;;
51981;SDS011;37998;53.416;6.730;2023-06-05T14:05:51;3.90;;;2.67;;
51981;SDS011;37998;53.416;6.730;2023-06-05T14:08:17;6.72;;;2.60;;
51981;SDS011;37998;53.416;6.730;2023-06-05T14:10:44;3.30;;;2.40;;
51981;SDS011;37998;53.416;6.730;2023-06-05T14:13:10;2.85;;;2.47;;
51981;SDS011;37998;53.416;6.730;2023-06-05T14:15:36;4.90;;;2.80;;
51981;SDS011;37998;53.416;6.730;2023-06-05T14:18:03;4.25;;;2.35;;
51981;SDS011;37998;53.416;6.730;2023-06-05T14:20:30;3.70;;;2.55;;
51981;SDS011;37998;53.416;6.730;2023-06-05T14:22:57;3.53;;;2.65;;
51981;SDS011;37998;53.416;6.730;2023-06-05T14:25:24;2.58;;;2.38;;
51981;SDS011;37998;53.416;6.730;2023-06-05T14:27:54;4.35;;;2.65;;
51981;SDS011;37998;53.416;6.730;2023-06-05T14:30:21;5.22;;;3.05;;
51981;SDS011;37998;53.416;6.730;2023-06-05T14:32:47;7.25;;;3.15;;
51981;SDS011;37998;53.416;6.730;2023-06-05T14:35:13;7.55;;;3.22;;
51981;SDS011;37998;53.416;6.730;2023-06-05T14:37:45;6.30;;;2.97;;
51981;SDS011;37998;53.416;6.730;2023-06-05T14:40:11;5.72;;;2.88;;
51981;SDS011;37998;53.416;6.730;2023-06-05T14:42:38;4.82;;;3.08;;
51981;SDS011;37998;53.416;6.730;2023-06-05T14:45:04;4.82;;;3.55;;
51981;SDS011;37998;53.416;6.730;2023-06-05T14:47:31;9.23;;;3.33;;
51981;SDS011;37998;53.416;6.730;2023-06-05T14:49:57;4.60;;;3.20;;
51981;SDS011;37998;53.416;6.730;2023-06-05T14:52:24;4.53;;;2.88;;
51981;SDS011;37998;53.416;6.730;2023-06-05T14:54:50;4.22;;;3.00;;
51981;SDS011;37998;53.416;6.730;2023-06-05T14:57:16;6.07;;;3.30;;
51981;SDS011;37998;53.416;6.730;2023-06-05T14:59:41;4.15;;;3.03;;
51981;SDS011;37998;53.416;6.730;2023-06-05T15:02:07;5.75;;;3.45;;
51981;SDS011;37998;53.416;6.730;2023-06-05T15:04:33;4.93;;;3.03;;
51981;SDS011;37998;53.416;6.730;2023-06-05T15:07:00;4.28;;;3.20;;
51981;SDS011;37998;53.416;6.730;2023-06-05T15:09:28;4.00;;;3.00;;
51981;SDS011;37998;53.416;6.730;2023-06-05T15:11:57;6.75;;;3.00;;
51981;SDS011;37998;53.416;6.730;2023-06-05T15:14:25;4.70;;;2.72;;
51981;SDS011;37998;53.416;6.730;2023-06-05T15:16:51;3.85;;;3.00;;
51981;SDS011;37998;53.416;6.730;2023-06-05T15:19:17;4.50;;;2.95;;
51981;SDS011;37998;53.416;6.730;2023-06-05T15:21:43;6.28;;;3.03;;
51981;SDS011;37998;53.416;6.730;2023-06-05T15:24:09;3.85;;;3.22;;
51981;SDS011;37998;53.416;6.730;2023-06-05T15:26:35;4.32;;;3.08;;
51981;SDS011;37998;53.416;6.730;2023-06-05T15:29:01;10.43;;;3.40;;
51981;SDS011;37998;53.416;6.730;2023-06-05T15:31:27;3.38;;;2.97;;
51981;SDS011;37998;53.416;6.730;2023-06-05T15:33:53;2.83;;;2.63;;
51981;SDS011;37998;53.416;6.730;2023-06-05T15:36:18;6.15;;;3.30;;